Time;durP1;ratioP1;P1;durP2;ratioP2;P2;SDS_P1;SDS_P2;PMS_P1;PMS_P2;Temp;Humidity;BMP_temperature;BMP_pressure;BME280_temperature;BME280_humidity;BME280_pressure;Samples;Min_cycle;Max_cycle;Signal;HPM_P1;HPM_P2
2023/09/20 00:00:28;;;;;;;5.05;1.85;;;;;;;16.45;86.56;100807.56;5031594;28;20033;-84
2023/09/20 00:02:54;;;;;;;;;;;;;;;16.47;86.43;100823.22;5034443;28;20045;-83
2023/09/20 00:05:21;;;;;;;4.80;2.10;;;;;;;16.40;86.97;100812.16;5032096;28;19980;-83
2023/09/20 00:07:47;;;;;;;1.92;1.73;;;;;;;16.37;87.14;100817.50;5031696;28;20039;-83
2023/09/20 00:10:19;;;;;;;5.20;2.03;;;;;;;16.32;86.93;100816.84;5032193;28;20073;-83
2023/09/20 00:12:44;;;;;;;3.85;1.77;;;;;;;16.30;87.47;100813.44;5031447;28;20051;-83
2023/09/20 00:15:10;;;;;;;1.70;1.60;;;;;;;16.23;87.58;100806.72;5031934;28;20029;-83
2023/09/20 00:17:37;;;;;;;3.10;1.90;;;;;;;16.19;88.08;100803.38;5050261;28;20484;-83
2023/09/20 00:20:06;;;;;;;4.47;1.80;;;;;;;16.20;87.62;100807.69;5050900;28;20540;-83
2023/09/20 00:22:31;;;;;;;1.85;1.50;;;;;;;16.16;87.86;100812.19;5051931;28;20070;-84
2023/09/20 00:24:58;;;;;;;1.60;1.50;;;;;;;16.12;87.88;100813.22;5048277;28;20437;-84
2023/09/20 00:27:24;;;;;;;4.95;2.20;;;;;;;16.08;88.23;100814.28;5051154;28;20029;-83
2023/09/20 00:29:49;;;;;;;3.47;2.03;;;;;;;16.04;88.63;100812.69;5055480;28;20032;-83
2023/09/20 00:32:14;;;;;;;2.50;1.90;;;;;;;15.91;88.24;100799.22;5055470;28;20119;-83
2023/09/20 00:34:40;;;;;;;3.77;1.90;;;;;;;15.94;88.49;100804.31;5066024;28;20027;-83
2023/09/20 00:37:05;;;;;;;2.30;1.47;;;;;;;15.86;89.23;100799.41;5074945;28;20060;-83
2023/09/20 00:39:30;;;;;;;2.47;1.90;;;;;;;15.87;88.47;100806.34;5075437;28;20081;-83
2023/09/20 00:41:57;;;;;;;2.80;1.70;;;;;;;15.81;89.45;100798.69;5074285;28;20039;-83
2023/09/20 00:44:23;;;;;;;6.25;2.10;;;;;;;15.75;90.04;100801.53;5075128;28;20063;-83
2023/09/20 00:46:48;;;;;;;3.20;1.70;;;;;;;15.77;89.74;100798.84;5075272;28;20218;-83
2023/09/20 00:49:13;;;;;;;2.00;1.70;;;;;;;15.74;89.51;100797.22;5073891;28;20027;-83
2023/09/20 00:51:39;;;;;;;2.17;1.70;;;;;;;15.69;90.50;100792.16;5075327;28;20025;-83
2023/09/20 00:54:05;;;;;;;5.45;2.00;;;;;;;15.69;90.39;100792.16;5074616;28;20502;-84
2023/09/20 00:56:32;;;;;;;3.13;1.97;;;;;;;15.70;90.06;100795.63;5074097;28;20048;-84
2023/09/20 00:58:57;;;;;;;;;;;;;;;15.72;91.17;100796.41;5075511;28;20040;-83
2023/09/20 01:01:26;;;;;;;4.30;1.97;;;;;;;15.69;90.49;100802.63;5066074;28;19909;-83
2023/09/20 01:03:52;;;;;;;2.72;1.90;;;;;;;15.62;90.69;100785.44;5054241;28;20029;-82
2023/09/20 01:06:17;;;;;;;2.07;1.57;;;;;;;15.74;90.49;100800.66;5054799;28;20040;-82
2023/09/20 01:08:43;;;;;;;2.37;1.73;;;;;;;15.74;90.88;100799.81;5054389;28;20021;-83
2023/09/20 01:11:10;;;;;;;1.88;1.55;;;;;;;15.79;91.02;100805.72;5054422;28;20484;-82
2023/09/20 01:13:37;;;;;;;4.07;1.90;;;;;;;15.77;90.77;100801.47;5055922;28;20100;-83
2023/09/20 01:16:05;;;;;;;3.03;1.85;;;;;;;15.75;90.72;100797.16;5053593;28;20090;-82
2023/09/20 01:18:30;;;;;;;3.70;1.75;;;;;;;15.79;90.71;100802.28;5054732;28;20025;-82
2023/09/20 01:20:55;;;;;;;1.60;1.50;;;;;;;15.78;91.71;100790.09;5054846;28;20119;-82
2023/09/20 01:23:21;;;;;;;3.53;1.60;;;;;;;15.78;90.78;100798.78;5053848;28;20053;-83
2023/09/20 01:25:47;;;;;;;4.33;2.00;;;;;;;15.75;91.46;100786.69;5054262;28;20120;-83
2023/09/20 01:28:12;;;;;;;2.20;1.58;;;;;;;15.72;91.10;100788.56;5053661;28;20367;-83
2023/09/20 01:30:40;;;;;;;1.98;1.50;;;;;;;15.71;91.30;100787.69;5053665;28;20020;-83
2023/09/20 01:33:09;;;;;;;1.65;1.52;;;;;;;15.72;90.98;100783.34;5054422;28;20021;-83
2023/09/20 01:35:36;;;;;;;2.75;1.70;;;;;;;15.71;91.71;100779.84;5054432;28;20017;-83
2023/09/20 01:38:07;;;;;;;1.88;1.75;;;;;;;15.68;92.14;100779.13;5053757;28;20048;-83
2023/09/20 01:40:33;;;;;;;2.13;1.50;;;;;;;15.63;91.64;100770.59;5053342;28;20033;-83
2023/09/20 01:43:11;;;;;;;2.78;1.80;;;;;;;15.68;92.09;100773.88;5053957;28;20468;-83
2023/09/20 01:45:36;;;;;;;3.60;2.15;;;;;;;15.60;92.01;100761.09;5053347;28;20526;-83
2023/09/20 01:48:08;;;;;;;2.50;1.90;;;;;;;15.62;92.56;100769.72;5054015;28;20120;-83
2023/09/20 01:50:34;;;;;;;1.70;1.60;;;;;;;15.60;91.98;100771.53;5053754;28;20028;-82
2023/09/20 01:53:04;;;;;;;1.90;1.63;;;;;;;15.56;92.35;100755.13;5064176;28;20063;-82
2023/09/20 01:55:31;;;;;;;2.05;1.70;;;;;;;15.58;92.08;100763.78;5073722;28;20059;-82
2023/09/20 01:57:59;;;;;;;3.08;1.80;;;;;;;15.57;92.62;100756.00;5073770;28;20381;-82
2023/09/20 02:00:30;;;;;;;3.03;1.63;;;;;;;15.56;93.58;100751.66;5073853;28;20081;-82
2023/09/20 02:02:57;;;;;;;3.80;1.75;;;;;;;15.49;92.90;100737.97;5073775;28;20492;-83
2023/09/20 02:05:23;;;;;;;;;;;;;;;15.61;92.42;100749.72;5073650;28;20025;-82
2023/09/20 02:07:50;;;;;;;3.80;1.75;;;;;;;15.59;92.63;100741.09;5073786;28;19909;-83
2023/09/20 02:10:18;;;;;;;;;;;;;;;15.57;94.12;100735.06;5074325;28;20048;-83
2023/09/20 02:12:57;;;;;;;2.53;1.95;;;;;;;15.56;93.55;100749.88;5072882;28;19917;-83
2023/09/20 02:15:26;;;;;;;3.17;2.05;;;;;;;15.56;94.37;100734.19;5070848;28;20174;-83
2023/09/20 02:17:52;;;;;;;2.47;1.80;;;;;;;15.58;94.32;100732.38;5073685;28;20055;-83
2023/09/20 02:20:20;;;;;;;2.45;1.80;;;;;;;15.61;93.78;100728.78;5072154;28;20477;-83
2023/09/20 02:22:53;;;;;;;4.15;1.95;;;;;;;15.60;94.28;100722.72;5073626;28;20028;-82
2023/09/20 02:25:22;;;;;;;2.40;1.63;;;;;;;15.65;94.14;100733.00;5073336;28;20020;-83
2023/09/20 02:27:52;;;;;;;3.88;1.90;;;;;;;15.69;93.89;100726.75;5072422;28;20531;-82
2023/09/20 02:30:20;;;;;;;3.53;1.98;;;;;;;15.73;94.18;100719.63;5072466;28;20036;-83
2023/09/20 02:32:52;;;;;;;4.65;2.15;;;;;;;15.74;94.34;100729.19;5073359;28;20386;-83
2023/09/20 02:35:18;;;;;;;3.75;2.13;;;;;;;15.76;94.34;100722.13;5072039;28;20365;-82
2023/09/20 02:37:46;;;;;;;4.00;1.92;;;;;;;15.80;94.14;100725.47;5073269;28;20039;-83
2023/09/20 02:40:13;;;;;;;2.35;1.85;;;;;;;15.81;94.25;100722.78;5071974;28;20028;-82
2023/09/20 02:42:47;;;;;;;3.70;2.20;;;;;;;15.84;93.23;100724.44;5073109;28;20056;-83
2023/09/20 02:45:13;;;;;;;3.78;1.90;;;;;;;15.84;93.65;100727.03;5072490;28;20024;-83
2023/09/20 02:47:40;;;;;;;2.22;1.88;;;;;;;15.81;93.48;100709.72;5071361;28;20020;-82
2023/09/20 02:50:07;;;;;;;5.25;2.08;;;;;;;15.76;94.53;100698.59;5072303;28;20029;-82
2023/09/20 02:52:35;;;;;;;4.72;2.25;;;;;;;15.81;93.64;100712.31;5072994;28;20025;-82
2023/09/20 02:55:03;;;;;;;4.32;2.10;;;;;;;15.82;94.03;100707.97;5072333;28;20095;-83
2023/09/20 02:57:29;;;;;;;4.32;2.20;;;;;;;15.74;94.34;100697.78;5071206;28;20028;-82
2023/09/20 02:59:55;;;;;;;3.75;2.30;;;;;;;15.76;94.34;100703.81;5072986;28;20016;-83
2023/09/20 03:02:20;;;;;;;4.33;2.07;;;;;;;15.78;93.98;100701.97;5071866;28;20052;-82
2023/09/20 03:04:45;;;;;;;3.70;2.10;;;;;;;15.76;94.27;100701.22;5072915;28;20029;-83
2023/09/20 03:07:11;;;;;;;4.10;2.30;;;;;;;15.79;94.32;100703.69;5072606;28;20086;-83
2023/09/20 03:09:37;;;;;;;3.87;2.30;;;;;;;15.80;94.39;100701.94;5072061;28;20469;-83
2023/09/20 03:12:06;;;;;;;4.75;2.20;;;;;;;15.77;93.99;100694.19;5065168;28;20068;-82
2023/09/20 03:14:39;;;;;;;3.08;2.10;;;;;;;15.76;94.14;100695.97;5052537;28;20017;-83
2023/09/20 03:17:05;;;;;;;4.35;2.03;;;;;;;15.74;94.51;100690.78;5051535;28;20029;-82
2023/09/20 03:19:31;;;;;;;3.50;2.10;;;;;;;15.75;94.56;100683.81;5052860;28;20458;-83
2023/09/20 03:21:57;;;;;;;3.17;2.00;;;;;;;15.76;94.85;100685.50;5052928;28;20037;-83
2023/09/20 03:24:22;;;;;;;3.80;2.30;;;;;;;15.69;94.32;100670.94;5051210;28;20033;-82
2023/09/20 03:26:51;;;;;;;3.93;1.90;;;;;;;15.73;94.66;100677.78;5052660;28;20355;-83
2023/09/20 03:29:17;;;;;;;5.65;2.50;;;;;;;15.71;94.93;100667.34;5052216;28;20485;-83
2023/09/20 03:31:43;;;;;;;4.63;2.27;;;;;;;15.73;94.69;100672.53;5051996;28;20067;-82
2023/09/20 03:34:10;;;;;;;2.70;2.00;;;;;;;15.72;94.83;100676.06;5052266;28;20040;-83
2023/09/20 03:36:36;;;;;;;2.65;2.08;;;;;;;15.66;94.75;100677.16;5052013;28;20025;-82
2023/09/20 03:39:05;;;;;;;3.35;1.90;;;;;;;15.68;94.67;100682.31;5056268;28;20082;-83
2023/09/20 03:41:31;;;;;;;2.90;2.05;;;;;;;15.67;94.63;100680.59;5052276;28;20021;-83
2023/09/20 03:43:56;;;;;;;2.50;1.70;;;;;;;15.63;94.44;100690.34;5052120;28;20033;-83
2023/09/20 03:46:21;;;;;;;1.93;1.70;;;;;;;15.59;94.56;100681.78;5052470;28;20033;-83
2023/09/20 03:48:47;;;;;;;3.37;1.73;;;;;;;15.56;95.40;100681.03;5052439;28;20134;-83
2023/09/20 03:51:15;;;;;;;5.37;2.33;;;;;;;15.55;95.54;100692.41;5051146;28;20607;-82
2023/09/20 03:53:44;;;;;;;2.53;1.83;;;;;;;15.52;94.46;100689.91;5052395;28;20040;-82
2023/09/20 03:56:11;;;;;;;4.28;2.33;;;;;;;15.47;95.94;100682.25;5052015;28;20036;-83
2023/09/20 03:58:37;;;;;;;4.35;2.25;;;;;;;15.43;95.80;100678.03;5051853;28;20025;-82
2023/09/20 04:01:03;;;;;;;2.40;2.00;;;;;;;15.42;95.91;100676.34;5051985;28;20025;-83
2023/09/20 04:03:28;;;;;;;5.43;2.20;;;;;;;15.37;96.11;100680.91;5053922;28;20044;-83
2023/09/20 04:05:57;;;;;;;3.03;2.10;;;;;;;15.36;96.19;100685.28;5055524;28;20123;-83
2023/09/20 04:08:22;;;;;;;4.07;2.10;;;;;;;15.29;95.90;100681.19;5055579;28;20809;-82
2023/09/20 04:10:47;;;;;;;2.40;1.77;;;;;;;15.26;96.95;100683.91;5055840;28;20036;-82
2023/09/20 04:13:14;;;;;;;2.07;1.80;;;;;;;15.26;96.13;100690.00;5055179;28;20100;-83
2023/09/20 04:15:42;;;;;;;;;;;;;;;15.24;96.57;100686.56;5056604;28;20021;-83
2023/09/20 04:18:08;;;;;;;4.35;2.05;;;;;;;15.20;97.40;100681.53;5055656;28;19923;-83
2023/09/20 04:20:34;;;;;;;3.40;2.20;;;;;;;15.17;97.22;100677.28;5055283;28;20025;-82
2023/09/20 04:22:59;;;;;;;4.80;2.17;;;;;;;15.10;97.46;100668.81;5056035;28;20508;-83
2023/09/20 04:25:24;;;;;;;4.07;2.20;;;;;;;15.09;97.04;100661.00;5055046;28;20401;-82
2023/09/20 04:27:50;;;;;;;3.40;2.07;;;;;;;15.08;98.24;100656.72;5054884;28;20029;-83
2023/09/20 04:30:17;;;;;;;2.90;2.00;;;;;;;15.08;97.52;100665.38;5055604;28;20044;-83
2023/09/20 04:32:43;;;;;;;4.10;2.60;;;;;;;15.05;98.62;100662.03;5054846;28;20078;-82
2023/09/20 04:35:08;;;;;;;6.03;2.67;;;;;;;15.03;98.31;100659.47;5055480;28;20100;-82
2023/09/20 04:37:34;;;;;;;3.23;2.17;;;;;;;14.99;98.21;100647.44;5055476;28;20028;-83
2023/09/20 04:40:00;;;;;;;4.70;2.20;;;;;;;14.95;98.65;100638.00;5054989;28;20024;-83
2023/09/20 04:42:27;;;;;;;3.40;2.20;;;;;;;15.00;97.99;100640.44;5055076;28;20025;-83
2023/09/20 04:44:52;;;;;;;3.15;2.17;;;;;;;14.98;98.94;100638.72;5055437;28;20052;-82
2023/09/20 04:47:18;;;;;;;3.00;2.07;;;;;;;15.00;98.69;100649.16;5054649;28;20102;-85
2023/09/20 04:49:44;;;;;;;2.87;2.10;;;;;;;14.93;99.96;100639.81;5055303;28;20079;-83
2023/09/20 04:52:11;;;;;;;3.85;2.40;;;;;;;14.96;99.29;100644.94;5054885;28;20044;-83
2023/09/20 04:54:39;;;;;;;4.38;2.20;;;;;;;14.94;98.42;100641.50;5054271;28;20025;-82
2023/09/20 04:57:04;;;;;;;2.35;2.10;;;;;;;14.88;98.12;100644.38;5055198;28;20021;-82
2023/09/20 04:59:31;;;;;;;3.83;2.17;;;;;;;14.86;98.15;100639.19;5055549;28;20105;-83
2023/09/20 05:01:56;;;;;;;;;;;;;;;14.90;98.62;100655.63;5054724;28;20057;-82
2023/09/20 05:04:22;;;;;;;3.37;2.10;;;;;;;14.88;98.30;100646.97;5054693;28;19925;-83
2023/09/20 05:06:48;;;;;;;4.40;2.20;;;;;;;14.80;100.00;100635.06;5064350;28;20432;-83
2023/09/20 05:09:13;;;;;;;4.07;2.20;;;;;;;14.70;100.00;100617.16;5072615;28;20033;-82
2023/09/20 05:11:39;;;;;;;3.20;2.10;;;;;;;14.83;98.79;100637.53;5074192;28;20074;-82
2023/09/20 05:14:07;;;;;;;3.57;2.20;;;;;;;14.80;99.87;100640.28;5074398;28;20028;-83
2023/09/20 05:16:33;;;;;;;4.07;2.10;;;;;;;14.75;100.00;100636.13;5074316;28;20017;-83
2023/09/20 05:18:58;;;;;;;3.03;2.33;;;;;;;14.78;99.96;100643.84;5074816;28;20031;-83
2023/09/20 05:21:24;;;;;;;2.20;2.00;;;;;;;14.76;100.00;100648.25;5074561;28;20021;-82
2023/09/20 05:23:49;;;;;;;2.23;1.90;;;;;;;14.72;100.00;100636.25;5066838;28;20024;-81
2023/09/20 05:26:14;;;;;;;3.07;1.90;;;;;;;14.74;100.00;100648.31;5054279;28;20487;-81
2023/09/20 05:28:40;;;;;;;3.07;2.13;;;;;;;14.73;100.00;100648.38;5061059;28;20020;-81
2023/09/20 05:31:11;;;;;;;3.67;1.97;;;;;;;14.66;100.00;100632.06;5056045;28;20032;-82
2023/09/20 05:33:39;;;;;;;5.85;2.50;;;;;;;14.69;100.00;100633.72;5054599;28;20025;-82
2023/09/20 05:36:05;;;;;;;3.03;2.20;;;;;;;14.73;100.00;100637.94;5053253;28;20024;-83
2023/09/20 05:38:30;;;;;;;2.88;2.15;;;;;;;14.74;100.00;100630.03;5054084;28;20040;-83
2023/09/20 05:40:55;;;;;;;4.97;2.10;;;;;;;14.74;100.00;100623.97;5054577;28;20393;-79
2023/09/20 05:43:21;;;;;;;5.23;2.17;;;;;;;14.77;100.00;100631.69;5053093;28;20082;-79
2023/09/20 05:45:46;;;;;;;3.03;2.20;;;;;;;14.80;100.00;100628.97;5054312;28;20462;-82
2023/09/20 05:48:12;;;;;;;3.20;2.10;;;;;;;14.70;100.00;100618.00;5053563;28;20041;-82
2023/09/20 05:50:38;;;;;;;2.37;1.80;;;;;;;14.82;100.00;100625.38;5053435;28;20457;-82
2023/09/20 05:53:10;;;;;;;3.57;2.13;;;;;;;14.82;100.00;100622.78;5053835;28;20107;-82
2023/09/20 05:55:40;;;;;;;4.45;2.20;;;;;;;14.82;100.00;100616.69;5062160;28;20028;-83
2023/09/20 05:58:06;;;;;;;4.65;2.40;;;;;;;14.83;100.00;100623.63;5056564;28;20112;-80
2023/09/20 06:00:34;;;;;;;4.25;2.45;;;;;;;14.85;100.00;100627.06;5067304;28;20042;-83
2023/09/20 06:03:00;;;;;;;5.75;2.40;;;;;;;14.89;100.00;100643.47;5072832;28;20044;-82
2023/09/20 06:05:26;;;;;;;3.97;2.20;;;;;;;14.92;100.00;100641.59;5070446;28;20419;-83
2023/09/20 06:07:53;;;;;;;3.53;2.43;;;;;;;14.90;100.00;100630.34;5072660;28;20021;-80
2023/09/20 06:10:19;;;;;;;4.15;2.20;;;;;;;14.96;100.00;100622.28;5072007;28;20611;-82
2023/09/20 06:12:45;;;;;;;4.68;2.42;;;;;;;15.00;100.00;100619.53;5069476;28;20531;-82
2023/09/20 06:15:14;;;;;;;4.22;2.40;;;;;;;15.06;100.00;100620.16;5073363;28;20028;-82
2023/09/20 06:17:42;;;;;;;5.50;2.70;;;;;;;15.12;100.00;100621.69;5073607;28;20491;-81
2023/09/20 06:20:19;;;;;;;6.32;2.60;;;;;;;15.14;100.00;100619.88;5072749;28;20033;-81
2023/09/20 06:22:48;;;;;;;6.32;2.60;;;;;;;15.13;100.00;100607.72;5073342;28;20477;-84
2023/09/20 06:25:15;;;;;;;9.07;2.60;;;;;;;15.17;100.00;100614.53;5072060;28;20359;-82
2023/09/20 06:27:41;;;;;;;3.90;2.35;;;;;;;15.28;100.00;100619.34;5068713;28;20025;-81
2023/09/20 06:30:12;;;;;;;5.70;2.50;;;;;;;15.34;100.00;100623.47;5065441;28;20389;-82
2023/09/20 06:32:38;;;;;;;3.25;2.33;;;;;;;15.37;100.00;100618.13;5052606;28;20029;-82
2023/09/20 06:35:04;;;;;;;3.00;2.37;;;;;;;15.44;100.00;100619.59;5053107;28;20032;-82
2023/09/20 06:37:30;;;;;;;3.78;2.30;;;;;;;15.54;100.00;100626.16;5053201;28;20028;-82
2023/09/20 06:39:56;;;;;;;4.73;2.60;;;;;;;15.68;100.00;100624.75;5052229;28;20390;-82
2023/09/20 06:42:22;;;;;;;4.05;2.35;;;;;;;15.96;100.00;100632.38;5053942;28;20024;-82
2023/09/20 06:44:49;;;;;;;3.58;2.35;;;;;;;16.40;99.90;100631.44;5053279;28;20542;-83
2023/09/20 06:47:17;;;;;;;3.45;2.35;;;;;;;17.47;97.85;100625.78;5052352;28;20496;-84
2023/09/20 06:49:42;;;;;;;2.60;1.92;;;;;;;19.34;97.06;100633.84;5053206;28;20056;-83
2023/09/20 06:52:08;;;;;;;2.83;2.00;;;;;;;21.55;81.79;100633.00;5052808;28;20454;-82
2023/09/20 06:54:36;;;;;;;3.88;2.00;;;;;;;23.09;80.71;100634.97;5052410;28;20083;-82
2023/09/20 06:57:05;;;;;;;3.60;2.10;;;;;;;23.86;62.59;100639.13;5054232;28;20385;-82
2023/09/20 06:59:32;;;;;;;4.85;2.33;;;;;;;24.07;66.70;100638.50;5052745;28;20473;-82
2023/09/20 07:01:59;;;;;;;5.28;2.20;;;;;;;24.19;64.82;100642.88;5051849;28;20401;-84
2023/09/20 07:04:25;;;;;;;4.85;2.35;;;;;;;23.64;65.28;100633.75;5052777;28;20417;-82
2023/09/20 07:06:54;;;;;;;4.70;2.08;;;;;;;22.61;66.96;100629.53;5053006;28;20025;-83
2023/09/20 07:09:20;;;;;;;4.05;2.00;;;;;;;21.36;70.91;100642.13;5051709;28;20385;-82
2023/09/20 07:11:46;;;;;;;3.10;1.90;;;;;;;20.43;74.40;100645.16;5053101;28;20037;-83
2023/09/20 07:14:12;;;;;;;3.83;2.03;;;;;;;19.60;77.23;100635.00;5060362;28;20051;-81
2023/09/20 07:16:39;;;;;;;4.07;2.03;;;;;;;19.01;80.00;100625.06;5071944;28;20048;-83
2023/09/20 07:19:05;;;;;;;2.90;2.00;;;;;;;18.60;82.41;100617.59;5072621;28;20033;-82
2023/09/20 07:21:37;;;;;;;3.80;2.10;;;;;;;18.28;83.67;100614.88;5063666;28;20098;-84
2023/09/20 07:24:03;;;;;;;4.40;2.20;;;;;;;17.97;84.75;100614.63;5069116;28;20025;-84
2023/09/20 07:26:29;;;;;;;4.60;2.40;;;;;;;17.74;86.71;100613.97;5069537;28;20484;-82
2023/09/20 07:28:55;;;;;;;4.53;2.42;;;;;;;17.57;87.99;100613.91;5051894;28;20032;-84
2023/09/20 07:31:20;;;;;;;4.30;2.30;;;;;;;17.54;87.40;100617.56;5052296;28;20032;-84
2023/09/20 07:33:46;;;;;;;4.22;2.22;;;;;;;17.46;89.27;100596.09;5052377;28;20052;-83
2023/09/20 07:36:11;;;;;;;3.27;2.20;;;;;;;17.59;89.00;100620.81;5051387;28;20107;-84
2023/09/20 07:38:37;;;;;;;3.13;2.07;;;;;;;17.58;90.13;100613.88;5055123;28;20037;-83
2023/09/20 07:41:05;;;;;;;4.07;2.13;;;;;;;17.63;89.62;100628.53;5056578;28;20095;-83
2023/09/20 07:43:31;;;;;;;4.38;2.38;;;;;;;17.62;89.94;100619.81;5056083;28;20466;-83
2023/09/20 07:46:00;;;;;;;5.70;2.60;;;;;;;17.62;89.61;100621.59;5056783;28;20032;-83
2023/09/20 07:48:27;;;;;;;4.18;2.40;;;;;;;17.66;90.77;100628.38;5060572;28;20059;-83
2023/09/20 07:50:53;;;;;;;4.53;2.30;;;;;;;17.67;90.33;100628.31;5068979;28;20354;-83
2023/09/20 07:53:20;;;;;;;4.60;2.40;;;;;;;17.63;89.92;100621.50;5061652;28;20025;-82
2023/09/20 07:56:03;;;;;;;5.75;2.47;;;;;;;17.60;90.61;100619.91;5056282;28;20040;-83
2023/09/20 07:58:30;;;;;;;5.30;2.38;;;;;;;17.67;90.23;100614.34;5055889;28;20059;-83
2023/09/20 08:00:59;;;;;;;2.90;2.17;;;;;;;17.74;90.71;100611.34;5056432;28;20025;-83
2023/09/20 08:03:25;;;;;;;6.63;2.45;;;;;;;17.88;91.92;100620.31;5056232;28;20048;-83
2023/09/20 08:05:52;;;;;;;5.10;2.37;;;;;;;17.98;90.55;100624.22;5063798;28;20020;-83
2023/09/20 08:08:17;;;;;;;4.97;2.60;;;;;;;18.03;90.36;100613.47;5064525;28;20764;-84
2023/09/20 08:10:44;;;;;;;5.20;2.33;;;;;;;18.10;88.71;100616.66;5055482;28;20032;-83
2023/09/20 08:13:10;;;;;;;;;;;;;;;18.13;88.75;100613.84;5063477;28;20118;-83
2023/09/20 08:15:41;;;;;;;5.45;2.50;;;;;;;18.15;89.18;100623.38;5075911;28;19912;-83
2023/09/20 08:20:58;;;;;;;4.88;2.70;;;;;;;18.24;88.12;100635.16;5075977;28;20093;-83
2023/09/20 09:02:12;;;;;;;5.07;2.50;;;;;;;19.43;84.00;100635.94;5074479;28;20130;-83
2023/09/20 09:04:38;;;;;;;3.42;2.17;;;;;;;19.57;86.80;100632.53;5075021;28;20450;-82
2023/09/20 09:07:05;;;;;;;4.97;2.40;;;;;;;19.67;84.51;100635.50;5074119;28;20025;-83
2023/09/20 09:09:30;;;;;;;5.63;2.60;;;;;;;19.78;82.68;100633.09;5074992;28;20024;-82
2023/09/20 09:11:58;;;;;;;4.13;2.23;;;;;;;19.79;83.84;100626.03;5075050;28;20369;-82
2023/09/20 09:14:25;;;;;;;3.78;2.35;;;;;;;19.79;82.33;100629.53;5074054;28;20226;-83
2023/09/20 09:17:01;;;;;;;4.93;2.28;;;;;;;19.73;82.18;100635.13;5074683;28;20590;-82
2023/09/20 09:19:27;;;;;;;6.80;2.80;;;;;;;19.72;82.43;100642.19;5074406;28;20381;-82
2023/09/20 09:21:52;;;;;;;6.25;2.63;;;;;;;19.56;83.41;100631.69;5073801;28;20020;-83
2023/09/20 09:24:18;;;;;;;7.27;3.03;;;;;;;19.53;83.19;100633.66;5074089;28;20024;-83
2023/09/20 09:26:46;;;;;;;4.13;2.53;;;;;;;19.56;83.37;100628.19;5074734;28;20028;-82
2023/09/20 09:29:18;;;;;;;3.88;2.40;;;;;;;19.54;84.64;100630.06;5073673;28;20032;-82
2023/09/20 09:31:54;;;;;;;3.08;2.10;;;;;;;19.59;84.33;100634.13;5074230;28;20036;-83
2023/09/20 09:34:19;;;;;;;3.95;2.20;;;;;;;19.57;82.80;100625.50;5074145;28;20075;-82
2023/09/20 09:36:45;;;;;;;3.47;2.40;;;;;;;19.57;84.44;100616.75;5073952;28;20469;-82
2023/09/20 09:39:14;;;;;;;2.87;2.30;;;;;;;19.66;84.64;100629.38;5073911;28;20385;-83
2023/09/20 09:41:44;;;;;;;3.60;2.33;;;;;;;19.76;84.35;100624.44;5074085;28;20381;-83
2023/09/20 09:44:13;;;;;;;5.38;2.30;;;;;;;19.82;83.09;100615.34;5073128;28;20087;-83
2023/09/20 09:46:39;;;;;;;2.95;2.35;;;;;;;19.80;82.38;100602.28;5074289;28;20029;-83
2023/09/20 09:49:10;;;;;;;2.60;2.30;;;;;;;19.90;82.49;100624.53;5074005;28;20032;-82
2023/09/20 09:51:42;;;;;;;3.10;2.10;;;;;;;19.96;82.93;100623.31;5073753;28;20036;-85
2023/09/20 09:54:09;;;;;;;3.30;2.30;;;;;;;20.10;82.77;100614.59;5066703;28;20025;-84
2023/09/20 09:56:34;;;;;;;3.05;2.10;;;;;;;20.20;82.89;100610.47;5053331;28;20082;-83
2023/09/20 09:58:59;;;;;;;2.23;2.03;;;;;;;20.33;83.91;100604.47;5054137;28;20029;-83
2023/09/20 10:01:25;;;;;;;3.57;2.10;;;;;;;20.42;82.09;100606.56;5051804;28;20470;-83
2023/09/20 10:03:53;;;;;;;3.38;2.00;;;;;;;20.46;81.98;100594.88;5053277;28;20025;-83
2023/09/20 10:06:27;;;;;;;3.75;2.20;;;;;;;20.57;82.96;100601.28;5053363;28;20052;-83
2023/09/20 10:08:54;;;;;;;4.43;2.38;;;;;;;20.70;78.70;100598.72;5053863;28;20025;-83
2023/09/20 10:11:25;;;;;;;4.45;2.45;;;;;;;20.76;78.58;100606.31;5068608;28;20037;-83
2023/09/20 10:13:52;;;;;;;4.30;2.30;;;;;;;20.86;79.00;100598.66;5073696;28;20029;-82
2023/09/20 10:16:22;;;;;;;4.18;2.53;;;;;;;20.93;78.32;100587.63;5073157;28;20052;-83
2023/09/20 10:18:53;;;;;;;4.05;2.20;;;;;;;21.00;77.75;100596.00;5072502;28;20028;-83
2023/09/20 10:21:23;;;;;;;3.08;1.92;;;;;;;20.99;77.44;100596.94;5072379;28;20033;-83
2023/09/20 10:23:52;;;;;;;4.45;2.20;;;;;;;21.00;78.57;100590.72;5057943;28;20052;-83
2023/09/20 10:26:18;;;;;;;2.67;2.00;;;;;;;21.16;79.37;100587.13;5052515;28;20024;-83
2023/09/20 10:28:45;;;;;;;3.92;2.22;;;;;;;21.38;76.47;100584.81;5065283;28;20032;-82
2023/09/20 10:31:15;;;;;;;4.00;1.83;;;;;;;21.44;76.97;100579.09;5073024;28;20020;-83
2023/09/20 10:33:51;;;;;;;4.05;2.00;;;;;;;21.45;75.82;100580.81;5071653;28;20020;-82
2023/09/20 10:36:27;;;;;;;2.08;1.77;;;;;;;21.49;75.24;100577.97;5072285;28;20560;-82
2023/09/20 10:39:22;;;;;;;3.22;1.95;;;;;;;21.45;74.26;100580.81;5070911;28;20081;-84
2023/09/20 10:41:50;;;;;;;2.75;1.98;;;;;;;21.44;72.67;100560.63;5062760;28;20481;-84
2023/09/20 10:44:33;;;;;;;2.97;2.10;;;;;;;21.52;74.78;100562.75;5070621;28;20024;-83
2023/09/20 10:47:04;;;;;;;2.85;1.70;;;;;;;21.55;74.75;100567.00;5072469;28;20381;-83
2023/09/20 10:49:47;;;;;;;1.85;1.60;;;;;;;21.54;72.54;100560.00;5073233;28;20070;-83
2023/09/20 10:52:33;;;;;;;2.00;1.80;;;;;;;21.51;74.34;100560.22;5054684;28;20424;-82
2023/09/20 10:55:17;;;;;;;2.50;1.70;;;;;;;21.50;74.54;100553.25;5054381;28;20040;-83
2023/09/20 10:57:43;;;;;;;2.97;1.80;;;;;;;21.52;73.33;100553.97;5071311;28;20029;-82
2023/09/20 11:00:09;;;;;;;2.23;1.90;;;;;;;21.47;73.90;100561.38;5071402;28;20449;-82
2023/09/20 11:02:37;;;;;;;2.78;1.67;;;;;;;21.43;73.09;100558.94;5064492;28;20501;-81
2023/09/20 11:05:06;;;;;;;1.60;1.50;;;;;;;21.44;74.05;100543.94;5067482;28;20024;-84
2023/09/20 11:07:32;;;;;;;2.28;1.70;;;;;;;21.49;74.21;100555.03;5071148;28;20032;-82
2023/09/20 11:10:19;;;;;;;2.58;1.70;;;;;;;21.54;72.58;100557.38;5048722;28;20083;-82
2023/09/20 11:12:44;;;;;;;2.28;1.60;;;;;;;21.49;73.37;100549.75;5051779;28;20025;-83
2023/09/20 11:15:10;;;;;;;2.80;1.60;;;;;;;21.44;73.28;100541.31;5051712;28;20380;-82
2023/09/20 11:17:48;;;;;;;1.48;1.38;;;;;;;21.51;74.20;100545.22;5052262;28;20064;-83
2023/09/20 11:20:13;;;;;;;1.60;1.50;;;;;;;21.59;76.00;100542.13;5052446;28;20025;-83
2023/09/20 11:22:39;;;;;;;1.60;1.50;;;;;;;21.65;73.86;100546.16;5051642;28;20051;-82
2023/09/20 11:25:04;;;;;;;2.33;1.63;;;;;;;21.59;73.31;100542.13;5052422;28;20493;-83
2023/09/20 11:27:34;;;;;;;3.33;1.80;;;;;;;21.58;71.92;100543.88;5052521;28;20783;-83
2023/09/20 11:30:10;;;;;;;2.20;1.77;;;;;;;21.57;72.90;100536.88;5051769;28;20743;-83
2023/09/20 11:32:38;;;;;;;2.88;1.80;;;;;;;21.65;71.18;100535.59;5052219;28;20067;-82
2023/09/20 11:35:06;;;;;;;3.47;1.80;;;;;;;21.69;73.05;100542.31;5051291;28;20481;-83
2023/09/20 11:37:35;;;;;;;1.85;1.60;;;;;;;21.79;71.12;100539.94;5052198;28;20029;-84
2023/09/20 11:40:01;;;;;;;3.85;1.60;;;;;;;21.82;71.52;100545.00;5051178;28;20037;-85
2023/09/20 11:42:29;;;;;;;1.65;1.50;;;;;;;21.69;68.25;100553.75;5051005;28;20508;-83
2023/09/20 11:45:01;;;;;;;2.33;1.80;;;;;;;21.59;69.43;100548.22;5052379;28;20053;-83
2023/09/20 11:47:31;;;;;;;2.92;1.73;;;;;;;21.48;71.33;100542.78;5052310;28;20025;-83
2023/09/20 11:49:57;;;;;;;3.47;1.75;;;;;;;21.41;72.13;100546.78;5052370;28;20023;-83
2023/09/20 11:52:23;;;;;;;2.03;1.58;;;;;;;21.39;73.29;100546.03;5052298;28;20029;-83
2023/09/20 11:54:48;;;;;;;1.50;1.40;;;;;;;21.37;73.58;100546.16;5050314;28;20032;-83
2023/09/20 11:57:17;;;;;;;2.15;1.50;;;;;;;21.31;72.58;100538.63;5051849;28;20021;-81
2023/09/20 11:59:43;;;;;;;1.95;1.60;;;;;;;21.24;70.95;100547.88;5060469;28;20474;-84
2023/09/20 12:02:09;;;;;;;;;;;;;;;21.16;71.55;100544.91;5072320;28;20060;-84
2023/09/20 12:04:34;;;;;;;;;;;;;;;21.17;72.55;100536.06;5071853;28;19990;-83
2023/09/20 12:07:01;;;;;;;;;;;;;;;21.20;71.86;100547.25;5072530;28;20471;-84
2023/09/20 12:09:26;;;;;;;2.47;1.50;;;;;;;21.23;73.10;100541.75;5071926;28;19915;-83